createdAt,value
2024-03-02T02:57:55.732Z,7.30
2024-03-02T03:00:24.352Z,7.30
2024-03-02T03:05:20.829Z,7.10
2024-03-02T03:07:51.523Z,7.10
2024-03-02T03:22:44.911Z,7.00
2024-03-02T03:25:12.495Z,6.90
2024-03-02T03:27:40.122Z,6.90
2024-03-02T03:30:08.548Z,6.80
2024-03-02T03:32:36.487Z,6.80
2024-03-02T03:35:05.417Z,7.10
2024-03-02T03:37:35.086Z,7.30
2024-03-02T03:40:11.732Z,7.40
2024-03-02T03:42:40.671Z,7.30
2024-03-02T03:45:09.076Z,7.40
2024-03-02T04:52:03.915Z,8.00
2024-03-02T04:54:31.695Z,7.70
2024-03-02T04:56:59.725Z,7.70
2024-03-02T04:59:27.760Z,7.50
2024-03-02T05:01:55.401Z,7.40
2024-03-02T05:04:23.021Z,7.20
2024-03-02T05:06:54.343Z,6.90
2024-03-02T05:09:22.138Z,6.90
2024-03-02T05:12:08.470Z,7.00
2024-03-02T05:14:36.002Z,6.90
2024-03-02T05:17:03.656Z,7.20
2024-03-02T05:34:22.040Z,6.90
2024-03-02T05:41:45.802Z,6.60
2024-03-02T05:46:41.624Z,7.30
2024-03-02T05:49:09.420Z,6.40
2024-03-02T05:51:37.342Z,6.40
2024-03-02T05:54:05.172Z,6.40
2024-03-02T05:56:33.351Z,6.40
2024-03-02T05:59:14.329Z,6.30
2024-03-02T06:01:46.181Z,6.30
2024-03-02T06:04:14.860Z,6.20
2024-03-02T06:06:42.647Z,5.70
2024-03-02T06:09:13.428Z,6.50
2024-03-02T06:11:42.234Z,6.70
2024-03-02T06:14:10.730Z,6.70
2024-03-02T06:16:38.273Z,6.80
2024-03-02T06:19:05.917Z,6.80
2024-03-02T06:21:33.513Z,6.80
2024-03-02T06:24:02.487Z,6.90
2024-03-02T06:26:31.069Z,6.90
2024-03-02T06:28:58.853Z,7.00
2024-03-02T06:31:26.699Z,7.00
2024-03-02T06:33:54.309Z,7.10
2024-03-02T06:36:21.899Z,7.20
2024-03-02T06:38:49.538Z,7.20
2024-03-02T06:41:17.086Z,7.30
2024-03-02T06:43:44.706Z,7.40
2024-03-02T06:46:15.930Z,7.20
2024-03-02T06:48:43.861Z,7.30
2024-03-02T06:51:12.263Z,7.40
2024-03-02T06:53:39.817Z,7.40
2024-03-02T06:56:09.530Z,7.50
2024-03-02T06:58:37.086Z,7.40
2024-03-02T07:01:04.799Z,7.80
2024-03-02T07:03:32.428Z,7.50
2024-03-02T07:05:59.991Z,8.10
2024-03-02T07:08:27.622Z,8.30
2024-03-02T07:10:55.594Z,8.30
2024-03-02T07:13:23.137Z,8.40
2024-03-02T07:16:09.375Z,8.40
2024-03-02T07:18:42.356Z,8.60
2024-03-02T07:21:10.030Z,8.50
2024-03-02T07:23:37.749Z,8.60
2024-03-02T07:28:35.897Z,8.60
2024-03-02T07:31:06.233Z,8.80
2024-03-02T07:33:34.711Z,8.70
2024-03-02T07:36:05.101Z,8.70
2024-03-02T07:38:35.573Z,8.90
2024-03-02T07:41:03.963Z,9.20
2024-03-02T07:43:34.350Z,9.30
2024-03-02T07:46:02.226Z,9.40
2024-03-02T07:48:29.943Z,9.50
2024-03-02T07:50:57.488Z,9.60
2024-03-02T07:53:25.032Z,9.70
2024-03-02T07:55:52.695Z,9.80
2024-03-02T07:58:20.850Z,9.80
2024-03-02T08:00:49.382Z,9.70
2024-03-02T08:03:17.839Z,9.70
2024-03-02T08:05:46.171Z,9.70
2024-03-02T08:08:13.873Z,9.80
2024-03-02T08:10:41.404Z,9.90
2024-03-02T08:13:08.907Z,9.90
2024-03-02T08:15:36.489Z,10.00
2024-03-02T08:18:04.292Z,10.30
2024-03-02T08:20:32.887Z,10.40
2024-03-02T08:25:28.463Z,10.60
2024-03-02T18:13:02.098Z,10.00
2024-03-02T18:15:29.807Z,9.90
2024-03-02T18:17:57.429Z,9.80
2024-03-02T18:37:46.410Z,10.00
2024-03-02T18:40:15.821Z,10.00
2024-03-02T18:42:43.628Z,10.00
2024-03-02T18:45:11.374Z,10.00
2024-03-02T18:47:40.255Z,10.00
2024-03-02T18:50:11.472Z,10.00
2024-03-02T19:20:12.604Z,10.00
2024-03-02T19:22:41.287Z,10.10
2024-03-02T19:25:13.046Z,10.00
2024-03-02T19:27:40.922Z,9.90
2024-03-02T19:30:09.486Z,9.90
2024-03-02T19:32:37.126Z,9.80
2024-03-02T19:35:05.594Z,9.80
2024-03-02T19:37:33.235Z,9.90
2024-03-02T19:54:50.836Z,10.10
2024-03-02T19:57:18.691Z,10.10
2024-03-02T19:59:47.221Z,10.10
2024-03-02T20:02:16.764Z,10.20
2024-03-02T20:04:46.725Z,10.20
2024-03-02T20:07:14.425Z,10.20
2024-03-02T20:09:42.119Z,10.20
2024-03-02T20:12:09.895Z,10.20
2024-03-02T20:14:37.762Z,10.20
2024-03-02T20:17:05.750Z,10.10
2024-03-02T20:19:33.356Z,10.10
2024-03-02T20:22:00.935Z,10.10
2024-03-02T20:24:28.568Z,10.10
2024-03-02T20:26:56.261Z,10.10
2024-03-02T20:29:23.937Z,10.00
2024-03-02T20:31:51.497Z,10.00
2024-03-02T20:34:19.669Z,9.90
2024-03-02T20:36:47.955Z,9.90
2024-03-02T20:39:15.922Z,9.90
2024-03-02T20:41:43.572Z,9.90
2024-03-02T20:44:15.529Z,10.00
2024-03-02T20:46:43.123Z,10.00
2024-03-02T20:49:11.427Z,10.00
2024-03-02T20:51:39.245Z,10.00
2024-03-02T20:54:07.183Z,10.10
2024-03-02T20:56:41.987Z,10.10
2024-03-02T20:59:10.053Z,10.10
2024-03-02T21:01:38.611Z,10.10
2024-03-02T21:04:06.356Z,10.10
2024-03-02T21:06:33.976Z,10.10
2024-03-02T21:09:01.609Z,10.10
2024-03-02T21:11:29.312Z,10.10
2024-03-02T21:13:57.534Z,10.10
2024-03-02T21:16:25.303Z,10.10
2024-03-02T21:18:55.108Z,10.10
2024-03-02T21:21:22.901Z,10.10
2024-03-02T21:23:50.700Z,10.10
2024-03-02T21:26:18.208Z,10.00
2024-03-02T21:28:45.766Z,10.00
2024-03-02T21:31:17.790Z,10.00
2024-03-02T21:36:13.377Z,9.80
2024-03-02T21:38:40.923Z,10.00
2024-03-02T21:41:08.478Z,9.90
2024-03-02T22:57:41.006Z,9.50
2024-03-02T23:10:15.039Z,9.50
2024-03-02T23:12:44.144Z,9.50
2024-03-02T23:15:11.959Z,9.50
2024-03-02T23:25:05.376Z,9.50
2024-03-02T23:27:32.994Z,9.50
2024-03-02T23:30:00.522Z,9.50
2024-03-02T23:32:28.431Z,9.50
2024-03-02T23:34:56.077Z,9.50
2024-03-02T23:37:23.697Z,9.40
2024-03-02T23:40:06.498Z,9.40
2024-03-02T23:42:34.118Z,9.40
2024-03-02T23:45:03.088Z,9.40
2024-03-02T23:47:30.792Z,9.40
2024-03-02T23:49:58.296Z,9.40
2024-03-02T23:52:25.883Z,9.50
2024-03-02T23:54:53.530Z,9.50
